ORANGE1 EFHK-EFOU
Flight info
| Callsign | ORANGE1 |
|---|---|
| Flight time | 0h 37m |
| Altitude | 40000 |
| Route | TEVRU Y75 SUVIB |
| Aircraft | F35/M-SDE3RV/LB1 |
Departure
| Time | 2026-04-26 09:40 |
|---|---|
| Airport | Helsinki Vantaa Airport (EFHK) |
Arrival
| Time | 2026-04-26 10:18 |
|---|---|
| Airport | Oulu Airport (EFOU) |
| Time | Latitude | Longitude | Altitude | Speed | Heading |
|---|---|---|---|---|---|
| 2026-04-26 09:20 | 60.31565 | 24.93264 | 159 ft | 0 kts | 316° |
| 2026-04-26 09:23 | 60.31566 | 24.93263 | 159 ft | 2 kts | 314° |
| 2026-04-26 09:23 | 60.31567 | 24.93186 | 159 ft | 10 kts | 236° |
| 2026-04-26 09:24 | 60.31474 | 24.93107 | 159 ft | 20 kts | 204° |
| 2026-04-26 09:24 | 60.31336 | 24.93083 | 159 ft | 20 kts | 139° |
| 2026-04-26 09:24 | 60.31235 | 24.93272 | 159 ft | 19 kts | 137° |
| 2026-04-26 09:24 | 60.31217 | 24.93305 | 159 ft | 0 kts | 137° |
| 2026-04-26 09:25 | 60.31207 | 24.93322 | 163 ft | 8 kts | 140° |
| 2026-04-26 09:25 | 60.31142 | 24.93441 | 159 ft | 14 kts | 136° |
| 2026-04-26 09:25 | 60.31070 | 24.93580 | 159 ft | 14 kts | 137° |
| 2026-04-26 09:26 | 60.31052 | 24.93614 | 159 ft | 0 kts | 136° |
| 2026-04-26 09:26 | 60.31029 | 24.93657 | 160 ft | 6 kts | 137° |
| 2026-04-26 09:26 | 60.30998 | 24.93714 | 159 ft | 7 kts | 136° |
| 2026-04-26 09:27 | 60.30979 | 24.93841 | 159 ft | 17 kts | 76° |
| 2026-04-26 09:27 | 60.31050 | 24.94016 | 159 ft | 14 kts | 77° |
| 2026-04-26 09:27 | 60.31100 | 24.94133 | 159 ft | 11 kts | 49° |
| 2026-04-26 09:27 | 60.31150 | 24.94245 | 159 ft | 14 kts | 47° |
| 2026-04-26 09:28 | 60.31235 | 24.94422 | 159 ft | 19 kts | 43° |
| 2026-04-26 09:28 | 60.31316 | 24.94613 | 159 ft | 18 kts | 49° |
| 2026-04-26 09:28 | 60.31396 | 24.94789 | 159 ft | 17 kts | 47° |
| 2026-04-26 09:28 | 60.31474 | 24.94959 | 159 ft | 16 kts | 47° |
| 2026-04-26 09:29 | 60.31549 | 24.95118 | 159 ft | 15 kts | 46° |
| 2026-04-26 09:29 | 60.31617 | 24.95272 | 159 ft | 14 kts | 50° |
| 2026-04-26 09:29 | 60.31683 | 24.95419 | 159 ft | 14 kts | 48° |
| 2026-04-26 09:29 | 60.31747 | 24.95559 | 159 ft | 13 kts | 46° |
| 2026-04-26 09:30 | 60.31810 | 24.95694 | 159 ft | 13 kts | 50° |
| 2026-04-26 09:30 | 60.31868 | 24.95826 | 159 ft | 12 kts | 47° |
| 2026-04-26 09:30 | 60.31926 | 24.95951 | 159 ft | 12 kts | 46° |
| 2026-04-26 09:30 | 60.31980 | 24.96072 | 159 ft | 11 kts | 49° |
| 2026-04-26 09:31 | 60.32032 | 24.96190 | 159 ft | 11 kts | 48° |
| 2026-04-26 09:31 | 60.32086 | 24.96307 | 159 ft | 11 kts | 49° |
| 2026-04-26 09:31 | 60.32139 | 24.96428 | 159 ft | 14 kts | 48° |
| 2026-04-26 09:31 | 60.32207 | 24.96576 | 159 ft | 14 kts | 48° |
| 2026-04-26 09:32 | 60.32272 | 24.96718 | 159 ft | 13 kts | 49° |
| 2026-04-26 09:32 | 60.32282 | 24.96870 | 159 ft | 12 kts | 136° |
| 2026-04-26 09:32 | 60.32209 | 24.96943 | 159 ft | 12 kts | 155° |
| 2026-04-26 09:32 | 60.32136 | 24.97025 | 159 ft | 12 kts | 152° |
| 2026-04-26 09:33 | 60.32060 | 24.97102 | 158 ft | 12 kts | 154° |
| 2026-04-26 09:33 | 60.31984 | 24.97181 | 159 ft | 12 kts | 153° |
| 2026-04-26 09:33 | 60.31906 | 24.97261 | 159 ft | 13 kts | 153° |
| 2026-04-26 09:33 | 60.31826 | 24.97343 | 159 ft | 13 kts | 152° |
| 2026-04-26 09:34 | 60.31746 | 24.97427 | 159 ft | 13 kts | 153° |
| 2026-04-26 09:34 | 60.31668 | 24.97520 | 159 ft | 13 kts | 128° |
| 2026-04-26 09:34 | 60.31662 | 24.97540 | 159 ft | 0 kts | 116° |
| 2026-04-26 09:35 | 60.31617 | 24.97562 | 159 ft | 10 kts | 161° |
| 2026-04-26 09:35 | 60.31524 | 24.97655 | 159 ft | 16 kts | 152° |
| 2026-04-26 09:35 | 60.31431 | 24.97753 | 159 ft | 5 kts | 154° |
| 2026-04-26 09:36 | 60.31407 | 24.97792 | 159 ft | 3 kts | 111° |
| 2026-04-26 09:36 | 60.31407 | 24.97831 | 159 ft | 3 kts | 74° |
| 2026-04-26 09:36 | 60.31414 | 24.97866 | 158 ft | 0 kts | 64° |
| 2026-04-26 09:38 | 60.31419 | 24.97886 | 158 ft | 7 kts | 64° |
| 2026-04-26 09:38 | 60.31437 | 24.97950 | 155 ft | 8 kts | 53° |
| 2026-04-26 09:38 | 60.31491 | 24.98024 | 151 ft | 5 kts | 344° |
| 2026-04-26 09:39 | 60.31524 | 24.97993 | 150 ft | 5 kts | 332° |
| 2026-04-26 09:39 | 60.31527 | 24.97990 | 150 ft | 0 kts | 332° |
| 2026-04-26 09:39 | 60.31542 | 24.97974 | 150 ft | 34 kts | 333° |
| 2026-04-26 09:40 | 60.32184 | 24.97313 | 412 ft | 89 kts | 332° |
| 2026-04-26 09:40 | 60.32969 | 24.96462 | 1308 ft | 167 kts | 333° |
| 2026-04-26 09:40 | 60.33959 | 24.95292 | 2227 ft | 164 kts | 332° |
| 2026-04-26 09:40 | 60.34938 | 24.94037 | 3128 ft | 169 kts | 330° |
| 2026-04-26 09:41 | 60.35912 | 24.92694 | 3591 ft | 173 kts | 329° |
| 2026-04-26 09:41 | 60.36934 | 24.91497 | 3815 ft | 171 kts | 339° |
| 2026-04-26 09:41 | 60.38100 | 24.90575 | 3945 ft | 226 kts | 342° |
| 2026-04-26 09:41 | 60.39557 | 24.89441 | 3974 ft | 223 kts | 338° |
| 2026-04-26 09:42 | 60.40984 | 24.88316 | 3994 ft | 222 kts | 345° |
| 2026-04-26 09:42 | 60.42454 | 24.87614 | 4015 ft | 221 kts | 349° |
| 2026-04-26 09:42 | 60.43956 | 24.87069 | 4081 ft | 215 kts | 351° |
| 2026-04-26 09:42 | 60.45454 | 24.86595 | 4864 ft | 219 kts | 351° |
| 2026-04-26 09:43 | 60.46987 | 24.86141 | 5700 ft | 226 kts | 351° |
| 2026-04-26 09:43 | 60.48562 | 24.85780 | 6515 ft | 232 kts | 355° |
| 2026-04-26 09:43 | 60.50177 | 24.85680 | 7318 ft | 233 kts | 358° |
| 2026-04-26 09:43 | 60.51821 | 24.85577 | 8145 ft | 236 kts | 356° |
| 2026-04-26 09:44 | 60.53478 | 24.85378 | 8994 ft | 241 kts | 356° |
| 2026-04-26 09:44 | 60.55156 | 24.85186 | 9822 ft | 238 kts | 357° |
| 2026-04-26 09:44 | 60.56543 | 24.85061 | 10547 ft | 176 kts | 357° |
| 2026-04-26 09:44 | 60.58377 | 24.84891 | 11417 ft | 359 kts | 357° |
| 2026-04-26 09:45 | 60.61395 | 24.84573 | 12366 ft | 463 kts | 357° |
| 2026-04-26 09:45 | 60.64583 | 24.84253 | 13313 ft | 468 kts | 357° |
| 2026-04-26 09:45 | 60.67837 | 24.83929 | 14157 ft | 471 kts | 357° |
| 2026-04-26 09:45 | 60.71120 | 24.83592 | 14985 ft | 471 kts | 356° |
| 2026-04-26 09:46 | 60.74460 | 24.83254 | 15828 ft | 522 kts | 356° |
| 2026-04-26 09:46 | 60.78177 | 24.82884 | 16691 ft | 534 kts | 357° |
| 2026-04-26 09:46 | 60.81915 | 24.82738 | 17566 ft | 537 kts | 359° |
| 2026-04-26 09:46 | 60.85661 | 24.83057 | 18384 ft | 541 kts | 6° |
| 2026-04-26 09:47 | 60.89373 | 24.84184 | 19155 ft | 537 kts | 8° |
| 2026-04-26 09:47 | 60.93072 | 24.85091 | 19938 ft | 535 kts | 4° |
| 2026-04-26 09:47 | 60.96767 | 24.85888 | 20743 ft | 533 kts | 7° |
| 2026-04-26 09:47 | 61.00440 | 24.86843 | 21567 ft | 530 kts | 6° |
| 2026-04-26 09:48 | 61.04095 | 24.87657 | 22406 ft | 527 kts | 6° |
| 2026-04-26 09:48 | 61.07735 | 24.88546 | 23264 ft | 526 kts | 7° |
| 2026-04-26 09:48 | 61.11361 | 24.89421 | 23981 ft | 522 kts | 6° |
| 2026-04-26 09:48 | 61.15001 | 24.90279 | 24707 ft | 540 kts | 6° |
| 2026-04-26 09:49 | 61.18731 | 24.91187 | 25458 ft | 537 kts | 6° |
| 2026-04-26 09:49 | 61.22446 | 24.92077 | 26226 ft | 536 kts | 6° |
| 2026-04-26 09:49 | 61.26130 | 24.92966 | 27002 ft | 532 kts | 6° |
| 2026-04-26 09:49 | 61.29818 | 24.93862 | 27816 ft | 530 kts | 6° |
| 2026-04-26 09:50 | 61.33433 | 24.94735 | 28637 ft | 530 kts | 6° |
| 2026-04-26 09:50 | 61.37142 | 24.95639 | 29500 ft | 528 kts | 6° |
| 2026-04-26 09:50 | 61.40738 | 24.96516 | 30237 ft | 527 kts | 5° |
| 2026-04-26 09:50 | 61.44390 | 24.97407 | 30947 ft | 528 kts | 5° |
| 2026-04-26 09:51 | 61.48046 | 24.98304 | 31676 ft | 528 kts | 5° |
| 2026-04-26 09:51 | 61.51704 | 24.99201 | 32429 ft | 529 kts | 5° |
| 2026-04-26 09:51 | 61.55356 | 25.00100 | 33194 ft | 533 kts | 5° |
| 2026-04-26 09:51 | 61.58284 | 25.00824 | 33754 ft | 542 kts | 5° |
| 2026-04-26 09:52 | 61.60075 | 25.01269 | 34050 ft | 542 kts | 5° |
| 2026-04-26 09:52 | 61.63841 | 25.01863 | 34702 ft | 543 kts | 359° |
| 2026-04-26 09:53 | 61.67493 | 25.01734 | 35407 ft | 505 kts | 358° |
| 2026-04-26 09:53 | 61.71020 | 25.01924 | 36128 ft | 513 kts | 1° |
| 2026-04-26 09:53 | 61.74611 | 25.02083 | 36870 ft | 518 kts | 359° |
| 2026-04-26 09:53 | 61.78219 | 25.02160 | 37636 ft | 519 kts | 0° |
| 2026-04-26 09:54 | 61.81838 | 25.02353 | 38415 ft | 521 kts | 360° |
| 2026-04-26 09:54 | 61.85421 | 25.02457 | 39054 ft | 522 kts | 360° |
| 2026-04-26 09:54 | 61.89067 | 25.02597 | 39540 ft | 527 kts | 0° |
| 2026-04-26 09:54 | 61.92742 | 25.02752 | 39786 ft | 528 kts | 360° |
| 2026-04-26 09:55 | 61.96413 | 25.02877 | 39908 ft | 527 kts | 360° |
| 2026-04-26 09:55 | 62.00077 | 25.03024 | 39969 ft | 526 kts | 360° |
| 2026-04-26 09:55 | 62.07404 | 25.03301 | 40020 ft | 528 kts | 360° |
| 2026-04-26 09:56 | 62.11121 | 25.03449 | 40035 ft | 540 kts | 0° |
| 2026-04-26 09:56 | 62.14870 | 25.03596 | 40042 ft | 533 kts | 360° |
| 2026-04-26 09:56 | 62.22285 | 25.03876 | 40055 ft | 536 kts | 0° |
| 2026-04-26 09:57 | 62.29121 | 25.04139 | 40054 ft | 538 kts | 0° |
| 2026-04-26 09:57 | 62.36557 | 25.04427 | 40050 ft | 537 kts | 0° |
| 2026-04-26 09:58 | 62.44040 | 25.04717 | 40054 ft | 538 kts | 0° |
| 2026-04-26 09:58 | 62.51543 | 25.05009 | 40057 ft | 540 kts | 0° |
| 2026-04-26 09:59 | 62.59062 | 25.05304 | 40067 ft | 539 kts | 0° |
| 2026-04-26 09:59 | 62.66573 | 25.05606 | 40077 ft | 539 kts | 360° |
| 2026-04-26 10:00 | 62.74042 | 25.05880 | 40077 ft | 539 kts | 360° |
| 2026-04-26 10:00 | 62.81546 | 25.06179 | 40079 ft | 539 kts | 360° |
| 2026-04-26 10:01 | 62.89046 | 25.06476 | 40083 ft | 540 kts | 360° |
| 2026-04-26 10:01 | 62.96566 | 25.06778 | 40084 ft | 540 kts | 360° |
| 2026-04-26 10:02 | 63.04065 | 25.07082 | 40086 ft | 538 kts | 360° |
| 2026-04-26 10:02 | 63.11314 | 25.07376 | 40085 ft | 539 kts | 360° |
| 2026-04-26 10:03 | 63.18821 | 25.08220 | 40102 ft | 540 kts | 8° |
| 2026-04-26 10:03 | 63.26212 | 25.11602 | 40093 ft | 542 kts | 7° |
| 2026-04-26 10:04 | 63.33613 | 25.14108 | 40088 ft | 542 kts | 9° |
| 2026-04-26 10:04 | 63.41080 | 25.16770 | 40088 ft | 542 kts | 8° |
| 2026-04-26 10:05 | 63.48542 | 25.19502 | 40091 ft | 543 kts | 7° |
| 2026-04-26 10:05 | 63.56009 | 25.22237 | 40084 ft | 544 kts | 8° |
| 2026-04-26 10:06 | 63.63488 | 25.24970 | 40082 ft | 544 kts | 8° |
| 2026-04-26 10:06 | 63.70918 | 25.27702 | 40088 ft | 545 kts | 8° |
| 2026-04-26 10:07 | 63.78408 | 25.30478 | 40090 ft | 545 kts | 8° |
| 2026-04-26 10:07 | 63.85914 | 25.33272 | 40085 ft | 546 kts | 8° |
| 2026-04-26 10:08 | 63.93412 | 25.36078 | 40091 ft | 546 kts | 8° |
| 2026-04-26 10:08 | 63.97168 | 25.37489 | 39751 ft | 548 kts | 8° |
| 2026-04-26 10:08 | 64.00893 | 25.38895 | 39106 ft | 538 kts | 8° |
| 2026-04-26 10:09 | 64.04572 | 25.40284 | 38467 ft | 533 kts | 8° |
| 2026-04-26 10:09 | 64.08227 | 25.41668 | 37693 ft | 533 kts | 8° |
| 2026-04-26 10:09 | 64.11887 | 25.43059 | 36945 ft | 532 kts | 8° |
| 2026-04-26 10:09 | 64.15537 | 25.44449 | 36227 ft | 532 kts | 8° |
| 2026-04-26 10:10 | 64.19187 | 25.45843 | 35526 ft | 530 kts | 8° |
| 2026-04-26 10:10 | 64.22827 | 25.47237 | 34844 ft | 530 kts | 8° |
| 2026-04-26 10:10 | 64.26463 | 25.48633 | 34185 ft | 529 kts | 8° |
| 2026-04-26 10:10 | 64.30046 | 25.50012 | 33493 ft | 529 kts | 8° |
| 2026-04-26 10:11 | 64.33675 | 25.51412 | 32720 ft | 529 kts | 8° |
| 2026-04-26 10:11 | 64.37311 | 25.52820 | 31968 ft | 530 kts | 8° |
| 2026-04-26 10:11 | 64.40950 | 25.54232 | 31239 ft | 530 kts | 8° |
| 2026-04-26 10:11 | 64.44589 | 25.55648 | 30530 ft | 531 kts | 8° |
| 2026-04-26 10:12 | 64.48234 | 25.57070 | 29833 ft | 531 kts | 8° |
| 2026-04-26 10:12 | 64.51882 | 25.58497 | 28973 ft | 531 kts | 8° |
| 2026-04-26 10:12 | 64.55531 | 25.59928 | 28145 ft | 533 kts | 8° |
| 2026-04-26 10:12 | 64.59203 | 25.61373 | 27332 ft | 534 kts | 8° |
| 2026-04-26 10:13 | 64.62868 | 25.62818 | 26546 ft | 535 kts | 8° |
| 2026-04-26 10:13 | 64.66543 | 25.64272 | 25809 ft | 526 kts | 8° |
| 2026-04-26 10:13 | 64.69972 | 25.65638 | 25412 ft | 489 kts | 8° |
| 2026-04-26 10:13 | 64.73295 | 25.66950 | 25281 ft | 490 kts | 8° |
| 2026-04-26 10:14 | 64.76900 | 25.68355 | 24679 ft | 551 kts | 8° |
| 2026-04-26 10:14 | 64.80491 | 25.69732 | 24038 ft | 491 kts | 6° |
| 2026-04-26 10:14 | 64.83520 | 25.69232 | 19781 ft | 354 kts | 330° |
| 2026-04-26 10:14 | 64.85659 | 25.64576 | 11403 ft | 406 kts | 314° |
| 2026-04-26 10:15 | 64.86983 | 25.60136 | 6194 ft | 274 kts | 302° |
| 2026-04-26 10:15 | 64.87782 | 25.56546 | 4136 ft | 258 kts | 301° |
| 2026-04-26 10:15 | 64.88642 | 25.52633 | 2542 ft | 261 kts | 302° |
| 2026-04-26 10:15 | 64.89325 | 25.49643 | 1358 ft | 163 kts | 303° |
| 2026-04-26 10:16 | 64.89858 | 25.47592 | 742 ft | 191 kts | 307° |
| 2026-04-26 10:16 | 64.90525 | 25.45246 | 519 ft | 155 kts | 307° |
| 2026-04-26 10:16 | 64.90976 | 25.43403 | 391 ft | 125 kts | 304° |
| 2026-04-26 10:16 | 64.91417 | 25.41651 | 307 ft | 123 kts | 305° |
| 2026-04-26 10:17 | 64.91856 | 25.39950 | 213 ft | 120 kts | 305° |
| 2026-04-26 10:17 | 64.92281 | 25.38303 | 118 ft | 117 kts | 306° |
| 2026-04-26 10:17 | 64.92701 | 25.36676 | 51 ft | 117 kts | 305° |
| 2026-04-26 10:17 | 64.93029 | 25.35415 | 49 ft | 58 kts | 299° |
| 2026-04-26 10:18 | 64.93171 | 25.34842 | 52 ft | 31 kts | 297° |
| 2026-04-26 10:18 | 64.93276 | 25.34410 | 50 ft | 30 kts | 303° |
| 2026-04-26 10:18 | 64.93374 | 25.34015 | 51 ft | 23 kts | 281° |
| 2026-04-26 10:18 | 64.93330 | 25.33865 | 52 ft | 15 kts | 221° |
| 2026-04-26 10:19 | 64.93240 | 25.33771 | 52 ft | 15 kts | 187° |
| 2026-04-26 10:19 | 64.93152 | 25.33733 | 49 ft | 9 kts | 207° |
| 2026-04-26 10:19 | 64.93144 | 25.33647 | 52 ft | 1 kts | 280° |
| 2026-04-26 10:19 | 64.93145 | 25.33643 | 52 ft | 2 kts | 280° |
| 2026-04-26 10:20 | 64.93145 | 25.33641 | 52 ft | 0 kts | 280° |